Terminal Aerodrome Forecast
Issued by NWS

Current Version | Previous Version | Text Only | Print | Product List | Glossary Off
Versions: 1 2 3 4 5 6 7 8 9 10 11 12 13 14 15 16 17 18 19 20 21 22 23 24 25 26 27 28 29 30 31 32 33 34 35

000
FTUS41 KILN 200200 AAB
TAFLUK
TAF AMD
KLUK 200251Z 2003/2024 20012G23KT P6SM -SHRA SCT023 OVC040
      TEMPO 2003/2006 3SM -TSRA BR OVC023CB
     FM200600 20012G20KT P6SM VCSH OVC035
     FM200900 21012G20KT P6SM -SHRA OVC025
     FM201500 23014G26KT P6SM VCSH OVC025
     FM202300 26012KT P6SM SCT025=

USA.gov is the U.S. government's official web portal to all federal, state and local government web resources and services.